sensor_id;sensor_type;location;lat;lon;timestamp;pressure;altitude;pressure_sealevel;temperature;humidity
16331;BME280;8275;48.206;16.340;2023-02-03T00:01:43;100107.06;;;7.91;50.60
16331;BME280;8275;48.206;16.340;2023-02-03T00:04:14;100107.91;;;7.91;50.94
16331;BME280;8275;48.206;16.340;2023-02-03T00:06:42;100106.03;;;7.92;50.64
16331;BME280;8275;48.206;16.340;2023-02-03T00:09:11;100109.81;;;7.91;50.57
16331;BME280;8275;48.206;16.340;2023-02-03T00:11:39;100113.38;;;7.91;50.51
16331;BME280;8275;48.206;16.340;2023-02-03T00:14:08;100116.94;;;7.92;50.73
16331;BME280;8275;48.206;16.340;2023-02-03T00:16:36;100106.84;;;7.92;50.84
16331;BME280;8275;48.206;16.340;2023-02-03T00:19:05;100118.41;;;7.94;50.66
16331;BME280;8275;48.206;16.340;2023-02-03T00:21:34;100119.00;;;7.96;50.71
16331;BME280;8275;48.206;16.340;2023-02-03T00:24:03;100136.00;;;7.98;50.73
16331;BME280;8275;48.206;16.340;2023-02-03T00:26:32;100132.19;;;7.99;50.71
16331;BME280;8275;48.206;16.340;2023-02-03T00:29:00;100134.72;;;8.01;50.78
16331;BME280;8275;48.206;16.340;2023-02-03T00:31:28;100128.00;;;8.03;50.69
16331;BME280;8275;48.206;16.340;2023-02-03T00:33:57;100138.44;;;8.06;50.64
16331;BME280;8275;48.206;16.340;2023-02-03T00:36:26;100131.72;;;8.09;50.87
16331;BME280;8275;48.206;16.340;2023-02-03T00:38:56;100135.28;;;8.09;50.57
16331;BME280;8275;48.206;16.340;2023-02-03T00:41:29;100143.25;;;8.11;50.52
16331;BME280;8275;48.206;16.340;2023-02-03T00:43:58;100141.38;;;8.11;50.42
16331;BME280;8275;48.206;16.340;2023-02-03T00:46:26;100135.69;;;8.13;50.56
16331;BME280;8275;48.206;16.340;2023-02-03T00:48:55;100140.09;;;8.14;50.65
16331;BME280;8275;48.206;16.340;2023-02-03T00:51:23;100141.78;;;8.15;50.62
16331;BME280;8275;48.206;16.340;2023-02-03T00:53:51;100148.06;;;8.15;50.46
16331;BME280;8275;48.206;16.340;2023-02-03T00:56:21;100144.28;;;8.16;50.40
16331;BME280;8275;48.206;16.340;2023-02-03T00:58:50;100143.44;;;8.16;50.63
16331;BME280;8275;48.206;16.340;2023-02-03T01:01:18;100136.09;;;8.16;50.51
16331;BME280;8275;48.206;16.340;2023-02-03T01:03:47;100136.09;;;8.16;50.43
16331;BME280;8275;48.206;16.340;2023-02-03T01:06:18;100133.13;;;8.18;50.57
16331;BME280;8275;48.206;16.340;2023-02-03T01:08:48;100132.09;;;8.19;50.64
16331;BME280;8275;48.206;16.340;2023-02-03T01:11:19;100132.72;;;8.21;50.36
16331;BME280;8275;48.206;16.340;2023-02-03T01:13:50;100131.88;;;8.20;50.49
16331;BME280;8275;48.206;16.340;2023-02-03T01:16:20;100128.28;;;8.20;50.50
16331;BME280;8275;48.206;16.340;2023-02-03T01:18:50;100127.47;;;8.19;50.45
16331;BME280;8275;48.206;16.340;2023-02-03T01:21:20;100118.44;;;8.19;50.46
16331;BME280;8275;48.206;16.340;2023-02-03T01:23:50;100121.59;;;8.16;50.40
16331;BME280;8275;48.206;16.340;2023-02-03T01:26:21;100119.94;;;8.15;50.17
16331;BME280;8275;48.206;16.340;2023-02-03T01:28:53;100114.91;;;8.12;50.29
16331;BME280;8275;48.206;16.340;2023-02-03T01:31:24;100112.63;;;8.09;50.37
16331;BME280;8275;48.206;16.340;2023-02-03T01:33:54;100114.75;;;8.07;50.53
16331;BME280;8275;48.206;16.340;2023-02-03T01:36:25;100114.13;;;8.05;50.20
16331;BME280;8275;48.206;16.340;2023-02-03T01:38:54;100098.78;;;8.04;50.57
16331;BME280;8275;48.206;16.340;2023-02-03T01:41:24;100104.47;;;8.02;50.63
16331;BME280;8275;48.206;16.340;2023-02-03T01:43:57;100098.41;;;8.00;50.42
16331;BME280;8275;48.206;16.340;2023-02-03T01:46:31;100090.22;;;8.00;50.40
16331;BME280;8275;48.206;16.340;2023-02-03T01:49:05;100099.47;;;7.99;50.79
16331;BME280;8275;48.206;16.340;2023-02-03T01:51:35;100102.19;;;7.99;50.70
16331;BME280;8275;48.206;16.340;2023-02-03T01:54:06;100086.88;;;7.98;50.67
16331;BME280;8275;48.206;16.340;2023-02-03T01:56:39;100089.81;;;7.97;50.79
16331;BME280;8275;48.206;16.340;2023-02-03T01:59:11;100080.59;;;7.98;50.85
16331;BME280;8275;48.206;16.340;2023-02-03T02:01:43;100070.53;;;7.98;50.67
16331;BME280;8275;48.206;16.340;2023-02-03T02:04:12;100076.81;;;7.99;50.72
16331;BME280;8275;48.206;16.340;2023-02-03T02:06:41;100075.75;;;8.00;50.88
16331;BME280;8275;48.206;16.340;2023-02-03T02:09:09;100069.25;;;8.01;50.74
16331;BME280;8275;48.206;16.340;2023-02-03T02:11:38;100060.81;;;8.02;50.99
16331;BME280;8275;48.206;16.340;2023-02-03T02:14:06;100062.28;;;8.05;50.98
16331;BME280;8275;48.206;16.340;2023-02-03T02:16:44;100057.22;;;8.08;50.97
16331;BME280;8275;48.206;16.340;2023-02-03T02:19:42;100063.50;;;8.09;50.98
16331;BME280;8275;48.206;16.340;2023-02-03T02:22:18;100060.72;;;8.15;51.05
16331;BME280;8275;48.206;16.340;2023-02-03T02:25:07;100059.44;;;8.18;50.79
16331;BME280;8275;48.206;16.340;2023-02-03T02:28:24;100054.41;;;8.21;50.97
16331;BME280;8275;48.206;16.340;2023-02-03T02:31:49;100061.06;;;8.25;50.96
16331;BME280;8275;48.206;16.340;2023-02-03T02:34:26;100049.53;;;8.30;50.89
16331;BME280;8275;48.206;16.340;2023-02-03T02:37:04;100047.41;;;8.32;50.89
16331;BME280;8275;48.206;16.340;2023-02-03T02:39:42;100041.94;;;8.32;51.04
16331;BME280;8275;48.206;16.340;2023-02-03T02:42:18;100046.34;;;8.33;51.23
16331;BME280;8275;48.206;16.340;2023-02-03T02:44:55;100038.16;;;8.33;51.34
16331;BME280;8275;48.206;16.340;2023-02-03T02:47:26;100046.34;;;8.33;51.28
16331;BME280;8275;48.206;16.340;2023-02-03T02:50:01;100046.78;;;8.30;51.62
16331;BME280;8275;48.206;16.340;2023-02-03T02:52:35;100051.88;;;8.26;51.58
16331;BME280;8275;48.206;16.340;2023-02-03T02:55:10;100042.41;;;8.22;51.64
16331;BME280;8275;48.206;16.340;2023-02-03T02:57:41;100040.13;;;8.19;52.35
16331;BME280;8275;48.206;16.340;2023-02-03T03:00:12;100047.69;;;8.17;52.15
16331;BME280;8275;48.206;16.340;2023-02-03T03:02:42;100030.94;;;8.14;52.19
16331;BME280;8275;48.206;16.340;2023-02-03T03:05:11;100022.97;;;8.12;52.21
16331;BME280;8275;48.206;16.340;2023-02-03T03:07:45;100024.25;;;8.10;52.35
16331;BME280;8275;48.206;16.340;2023-02-03T03:10:20;100015.47;;;8.08;52.51
16331;BME280;8275;48.206;16.340;2023-02-03T03:12:55;100005.81;;;8.05;52.49
16331;BME280;8275;48.206;16.340;2023-02-03T03:15:29;100002.69;;;8.02;53.08
16331;BME280;8275;48.206;16.340;2023-02-03T03:18:03;100005.03;;;7.98;53.03
16331;BME280;8275;48.206;16.340;2023-02-03T03:20:34;100001.69;;;7.96;53.24
16331;BME280;8275;48.206;16.340;2023-02-03T03:23:08;100010.31;;;7.93;53.33
16331;BME280;8275;48.206;16.340;2023-02-03T03:25:43;100002.56;;;7.90;53.50
16331;BME280;8275;48.206;16.340;2023-02-03T03:28:21;100000.31;;;7.87;53.83
16331;BME280;8275;48.206;16.340;2023-02-03T03:30:52;100002.38;;;7.85;53.76
16331;BME280;8275;48.206;16.340;2023-02-03T03:33:22;99996.13;;;7.85;53.98
16331;BME280;8275;48.206;16.340;2023-02-03T03:35:58;99993.16;;;7.86;53.97
16331;BME280;8275;48.206;16.340;2023-02-03T03:38:35;99993.34;;;7.91;53.99
16331;BME280;8275;48.206;16.340;2023-02-03T03:41:11;99990.19;;;7.94;53.93
16331;BME280;8275;48.206;16.340;2023-02-03T03:43:44;99985.72;;;8.00;53.92
16331;BME280;8275;48.206;16.340;2023-02-03T03:46:18;99978.13;;;8.02;53.82
16331;BME280;8275;48.206;16.340;2023-02-03T03:48:53;99984.00;;;8.05;53.86
16331;BME280;8275;48.206;16.340;2023-02-03T03:51:27;99989.81;;;8.09;53.83
16331;BME280;8275;48.206;16.340;2023-02-03T03:54:02;99987.72;;;8.11;54.03
16331;BME280;8275;48.206;16.340;2023-02-03T03:56:35;99991.88;;;8.13;53.95
16331;BME280;8275;48.206;16.340;2023-02-03T03:59:06;100004.50;;;8.14;54.00
16331;BME280;8275;48.206;16.340;2023-02-03T04:01:36;99996.91;;;8.16;53.98
16331;BME280;8275;48.206;16.340;2023-02-03T04:04:09;100012.00;;;8.19;53.86
16331;BME280;8275;48.206;16.340;2023-02-03T04:06:38;100007.16;;;8.21;53.79
16331;BME280;8275;48.206;16.340;2023-02-03T04:09:07;99995.41;;;8.20;53.60
16331;BME280;8275;48.206;16.340;2023-02-03T04:11:35;99976.53;;;8.19;53.71
16331;BME280;8275;48.206;16.340;2023-02-03T04:14:21;99964.78;;;8.18;54.08
16331;BME280;8275;48.206;16.340;2023-02-03T04:16:49;99969.38;;;8.18;53.87
16331;BME280;8275;48.206;16.340;2023-02-03T04:19:19;99963.09;;;8.17;53.54
16331;BME280;8275;48.206;16.340;2023-02-03T04:21:48;99968.34;;;8.19;54.00
16331;BME280;8275;48.206;16.340;2023-02-03T04:24:16;99957.44;;;8.19;53.93
16331;BME280;8275;48.206;16.340;2023-02-03T04:26:44;99962.88;;;8.19;53.89
16331;BME280;8275;48.206;16.340;2023-02-03T04:29:13;99956.59;;;8.18;53.96
16331;BME280;8275;48.206;16.340;2023-02-03T04:31:41;99941.91;;;8.19;53.76
16331;BME280;8275;48.206;16.340;2023-02-03T04:34:10;99937.25;;;8.20;53.97
16331;BME280;8275;48.206;16.340;2023-02-03T04:36:39;99938.94;;;8.21;54.07
16331;BME280;8275;48.206;16.340;2023-02-03T04:39:08;99936.19;;;8.21;54.07
16331;BME280;8275;48.206;16.340;2023-02-03T04:41:36;99930.13;;;8.19;54.17
16331;BME280;8275;48.206;16.340;2023-02-03T04:44:05;99926.56;;;8.18;54.26
16331;BME280;8275;48.206;16.340;2023-02-03T04:46:33;99929.28;;;8.18;54.33
16331;BME280;8275;48.206;16.340;2023-02-03T04:49:01;99915.66;;;8.18;54.21
16331;BME280;8275;48.206;16.340;2023-02-03T04:51:30;99914.59;;;8.19;54.08
16331;BME280;8275;48.206;16.340;2023-02-03T04:53:59;99922.78;;;8.19;54.49
16331;BME280;8275;48.206;16.340;2023-02-03T04:56:28;99907.47;;;8.18;54.89
16331;BME280;8275;48.206;16.340;2023-02-03T04:58:56;99905.34;;;8.20;55.05
16331;BME280;8275;48.206;16.340;2023-02-03T05:01:25;99900.47;;;8.22;55.14
16331;BME280;8275;48.206;16.340;2023-02-03T05:03:53;99903.81;;;8.24;55.40
16331;BME280;8275;48.206;16.340;2023-02-03T05:06:23;99897.94;;;8.27;55.51
16331;BME280;8275;48.206;16.340;2023-02-03T05:08:52;99902.97;;;8.30;55.49
16331;BME280;8275;48.206;16.340;2023-02-03T05:11:22;99904.63;;;8.31;55.79
16331;BME280;8275;48.206;16.340;2023-02-03T05:13:52;99897.50;;;8.30;56.01
16331;BME280;8275;48.206;16.340;2023-02-03T05:16:20;99898.34;;;8.31;56.05
16331;BME280;8275;48.206;16.340;2023-02-03T05:18:49;99893.50;;;8.33;55.99
16331;BME280;8275;48.206;16.340;2023-02-03T05:21:18;99889.25;;;8.37;56.15
16331;BME280;8275;48.206;16.340;2023-02-03T05:23:46;99883.53;;;8.38;56.09
16331;BME280;8275;48.206;16.340;2023-02-03T05:26:14;99868.59;;;8.41;56.06
16331;BME280;8275;48.206;16.340;2023-02-03T05:28:44;99862.94;;;8.42;56.27
16331;BME280;8275;48.206;16.340;2023-02-03T05:31:13;99858.06;;;8.44;56.28
16331;BME280;8275;48.206;16.340;2023-02-03T05:33:41;99874.59;;;8.49;56.28
16331;BME280;8275;48.206;16.340;2023-02-03T05:36:10;99859.88;;;8.51;56.45
16331;BME280;8275;48.206;16.340;2023-02-03T05:38:38;99860.72;;;8.51;56.36
16331;BME280;8275;48.206;16.340;2023-02-03T05:41:09;99853.38;;;8.52;56.55
16331;BME280;8275;48.206;16.340;2023-02-03T05:43:56;99842.44;;;8.52;56.50
16331;BME280;8275;48.206;16.340;2023-02-03T05:46:25;99840.31;;;8.54;56.54
16331;BME280;8275;48.206;16.340;2023-02-03T05:48:53;99838.78;;;8.58;56.54
16331;BME280;8275;48.206;16.340;2023-02-03T05:51:22;99832.03;;;8.60;56.76
16331;BME280;8275;48.206;16.340;2023-02-03T05:53:51;99838.09;;;8.62;56.75
16331;BME280;8275;48.206;16.340;2023-02-03T05:56:20;99834.31;;;8.63;56.87
16331;BME280;8275;48.206;16.340;2023-02-03T05:58:48;99828.84;;;8.63;57.17
16331;BME280;8275;48.206;16.340;2023-02-03T06:01:20;99829.47;;;8.65;57.26
16331;BME280;8275;48.206;16.340;2023-02-03T06:03:49;99818.28;;;8.67;57.37
16331;BME280;8275;48.206;16.340;2023-02-03T06:06:18;99808.81;;;8.69;57.42
16331;BME280;8275;48.206;16.340;2023-02-03T06:08:46;99815.09;;;8.70;57.83
16331;BME280;8275;48.206;16.340;2023-02-03T06:11:14;99812.13;;;8.71;57.67
16331;BME280;8275;48.206;16.340;2023-02-03T06:13:43;99811.09;;;8.72;58.06
16331;BME280;8275;48.206;16.340;2023-02-03T06:16:11;99807.28;;;8.73;58.17
16331;BME280;8275;48.206;16.340;2023-02-03T06:18:41;99798.88;;;8.75;58.21
16331;BME280;8275;48.206;16.340;2023-02-03T06:21:09;99801.34;;;8.76;58.73
16331;BME280;8275;48.206;16.340;2023-02-03T06:23:38;99797.53;;;8.77;58.35
16331;BME280;8275;48.206;16.340;2023-02-03T06:26:06;99793.50;;;8.80;58.68
16331;BME280;8275;48.206;16.340;2023-02-03T06:28:34;99790.56;;;8.81;58.71
16331;BME280;8275;48.206;16.340;2023-02-03T06:31:04;99793.91;;;8.83;58.65
16331;BME280;8275;48.206;16.340;2023-02-03T06:33:33;99784.41;;;8.86;58.59
16331;BME280;8275;48.206;16.340;2023-02-03T06:36:03;99790.47;;;8.88;58.95
16331;BME280;8275;48.206;16.340;2023-02-03T06:38:31;99783.47;;;8.92;59.13
16331;BME280;8275;48.206;16.340;2023-02-03T06:41:00;99787.88;;;8.93;59.18
16331;BME280;8275;48.206;16.340;2023-02-03T06:43:28;99795.38;;;8.97;59.32
16331;BME280;8275;48.206;16.340;2023-02-03T06:45:57;99782.31;;;8.99;59.35
16331;BME280;8275;48.206;16.340;2023-02-03T06:48:25;99784.59;;;9.02;59.22
16331;BME280;8275;48.206;16.340;2023-02-03T06:50:54;99782.19;;;9.06;59.46
16331;BME280;8275;48.206;16.340;2023-02-03T06:53:23;99776.28;;;9.09;59.22
16331;BME280;8275;48.206;16.340;2023-02-03T06:55:52;99775.78;;;9.12;59.40
16331;BME280;8275;48.206;16.340;2023-02-03T06:58:20;99757.03;;;9.15;59.42
16331;BME280;8275;48.206;16.340;2023-02-03T07:00:49;99775.09;;;9.16;59.53
16331;BME280;8275;48.206;16.340;2023-02-03T07:03:17;99767.50;;;9.18;59.87
16331;BME280;8275;48.206;16.340;2023-02-03T07:05:46;99781.78;;;9.21;59.67
16331;BME280;8275;48.206;16.340;2023-02-03T07:08:14;99769.53;;;9.23;59.68
16331;BME280;8275;48.206;16.340;2023-02-03T07:10:44;99765.72;;;9.24;59.79
16331;BME280;8275;48.206;16.340;2023-02-03T07:13:13;99770.94;;;9.26;59.78
16331;BME280;8275;48.206;16.340;2023-02-03T07:15:41;99775.34;;;9.27;59.87
16331;BME280;8275;48.206;16.340;2023-02-03T07:18:09;99774.88;;;9.30;59.86
16331;BME280;8275;48.206;16.340;2023-02-03T07:20:44;99782.84;;;9.31;59.97
16331;BME280;8275;48.206;16.340;2023-02-03T07:23:12;99776.06;;;9.34;60.03
16331;BME280;8275;48.206;16.340;2023-02-03T07:25:40;99775.81;;;9.35;60.52
16331;BME280;8275;48.206;16.340;2023-02-03T07:28:10;99767.41;;;9.37;60.28
16331;BME280;8275;48.206;16.340;2023-02-03T07:30:39;99773.47;;;9.39;60.51
16331;BME280;8275;48.206;16.340;2023-02-03T07:33:07;99778.44;;;9.42;60.45
16331;BME280;8275;48.206;16.340;2023-02-03T07:35:36;99711.28;;;9.46;60.57
16331;BME280;8275;48.206;16.340;2023-02-03T07:38:04;99758.97;;;9.50;60.75
16331;BME280;8275;48.206;16.340;2023-02-03T07:40:32;99767.75;;;9.52;60.83
16331;BME280;8275;48.206;16.340;2023-02-03T07:43:01;99765.41;;;9.55;nan
16331;BME280;8275;48.206;16.340;2023-02-03T07:45:31;99756.94;;;9.57;60.62
16331;BME280;8275;48.206;16.340;2023-02-03T07:47:59;99754.56;;;9.60;60.71
16331;BME280;8275;48.206;16.340;2023-02-03T07:50:28;99754.34;;;9.62;60.93
16331;BME280;8275;48.206;16.340;2023-02-03T07:52:56;99741.47;;;9.62;60.82
16331;BME280;8275;48.206;16.340;2023-02-03T07:55:25;99750.03;;;9.66;60.64
16331;BME280;8275;48.206;16.340;2023-02-03T07:57:54;99749.44;;;9.64;61.07
16331;BME280;8275;48.206;16.340;2023-02-03T08:00:24;99739.34;;;9.64;60.97
16331;BME280;8275;48.206;16.340;2023-02-03T08:02:54;99749.00;;;9.67;60.97
16331;BME280;8275;48.206;16.340;2023-02-03T08:05:22;99744.09;;;9.69;61.08
16331;BME280;8275;48.206;16.340;2023-02-03T08:07:51;99734.34;;;9.73;61.06
16331;BME280;8275;48.206;16.340;2023-02-03T08:10:19;99740.41;;;9.75;61.11
16331;BME280;8275;48.206;16.340;2023-02-03T08:12:48;99710.44;;;9.80;60.87
16331;BME280;8275;48.206;16.340;2023-02-03T08:15:19;99725.28;;;9.84;61.08
16331;BME280;8275;48.206;16.340;2023-02-03T08:17:48;99716.72;;;9.92;61.06
16331;BME280;8275;48.206;16.340;2023-02-03T08:20:18;99708.38;;;9.99;61.10
16331;BME280;8275;48.206;16.340;2023-02-03T08:22:47;99707.38;;;10.05;61.29
16331;BME280;8275;48.206;16.340;2023-02-03T08:25:16;99698.19;;;10.11;60.98
16331;BME280;8275;48.206;16.340;2023-02-03T08:27:47;99703.31;;;10.19;61.28
16331;BME280;8275;48.206;16.340;2023-02-03T08:30:22;99685.91;;;10.25;60.84
16331;BME280;8275;48.206;16.340;2023-02-03T08:32:51;99691.84;;;10.33;60.94
16331;BME280;8275;48.206;16.340;2023-02-03T08:35:22;99671.44;;;10.41;61.32
16331;BME280;8275;48.206;16.340;2023-02-03T08:37:51;99667.47;;;10.48;60.75
16331;BME280;8275;48.206;16.340;2023-02-03T08:40:19;99654.72;;;10.54;60.78
16331;BME280;8275;48.206;16.340;2023-02-03T08:42:48;99684.69;;;10.61;61.10
16331;BME280;8275;48.206;16.340;2023-02-03T08:45:17;99688.34;;;10.66;60.93
16331;BME280;8275;48.206;16.340;2023-02-03T08:47:45;99675.00;;;10.70;60.18
16331;BME280;8275;48.206;16.340;2023-02-03T08:50:14;99659.72;;;10.74;60.25
16331;BME280;8275;48.206;16.340;2023-02-03T08:52:44;99644.44;;;10.78;60.06
16331;BME280;8275;48.206;16.340;2023-02-03T08:55:12;99649.41;;;10.81;59.16
16331;BME280;8275;48.206;16.340;2023-02-03T08:57:41;99646.69;;;10.81;58.82
16331;BME280;8275;48.206;16.340;2023-02-03T09:00:12;99633.81;;;10.81;58.21
16331;BME280;8275;48.206;16.340;2023-02-03T09:02:41;99635.81;;;10.86;57.96
16331;BME280;8275;48.206;16.340;2023-02-03T09:05:10;99645.19;;;10.90;57.57
16331;BME280;8275;48.206;16.340;2023-02-03T09:07:39;99615.63;;;10.92;57.09
16331;BME280;8275;48.206;16.340;2023-02-03T09:10:11;99658.50;;;10.98;56.70
16331;BME280;8275;48.206;16.340;2023-02-03T09:12:40;99642.94;;;11.03;56.16
16331;BME280;8275;48.206;16.340;2023-02-03T09:15:09;99615.34;;;11.10;56.13
16331;BME280;8275;48.206;16.340;2023-02-03T09:17:38;99607.53;;;11.18;56.16
16331;BME280;8275;48.206;16.340;2023-02-03T09:20:08;99615.31;;;11.26;54.97
16331;BME280;8275;48.206;16.340;2023-02-03T09:22:39;99602.53;;;11.32;54.55
16331;BME280;8275;48.206;16.340;2023-02-03T09:25:09;99617.13;;;11.38;54.67
16331;BME280;8275;48.206;16.340;2023-02-03T09:27:38;99618.53;;;11.40;53.67
16331;BME280;8275;48.206;16.340;2023-02-03T09:30:08;99593.34;;;11.43;52.97
16331;BME280;8275;48.206;16.340;2023-02-03T09:32:37;99595.81;;;11.45;52.36
16331;BME280;8275;48.206;16.340;2023-02-03T09:35:06;99586.25;;;11.47;51.54
16331;BME280;8275;48.206;16.340;2023-02-03T09:37:35;99586.81;;;11.49;51.72
16331;BME280;8275;48.206;16.340;2023-02-03T09:40:05;99572.03;;;11.50;50.79
16331;BME280;8275;48.206;16.340;2023-02-03T09:42:58;99574.28;;;11.53;50.59
16331;BME280;8275;48.206;16.340;2023-02-03T09:45:30;99563.63;;;11.57;50.57
16331;BME280;8275;48.206;16.340;2023-02-03T09:48:05;99507.97;;;11.61;50.58
16331;BME280;8275;48.206;16.340;2023-02-03T09:50:38;99546.78;;;11.70;50.61
16331;BME280;8275;48.206;16.340;2023-02-03T09:53:22;99538.69;;;11.80;51.10
16331;BME280;8275;48.206;16.340;2023-02-03T09:55:56;99544.22;;;11.85;48.53
16331;BME280;8275;48.206;16.340;2023-02-03T09:58:32;99491.25;;;11.84;48.03
16331;BME280;8275;48.206;16.340;2023-02-03T10:01:03;99506.88;;;11.84;48.00
16331;BME280;8275;48.206;16.340;2023-02-03T10:03:40;99534.88;;;11.86;47.64
16331;BME280;8275;48.206;16.340;2023-02-03T10:06:22;99509.69;;;11.89;48.11
16331;BME280;8275;48.206;16.340;2023-02-03T10:09:15;99506.47;;;11.97;48.85
16331;BME280;8275;48.206;16.340;2023-02-03T10:12:25;99482.13;;;12.06;49.08
16331;BME280;8275;48.206;16.340;2023-02-03T10:15:19;99496.19;;;12.14;47.96
16331;BME280;8275;48.206;16.340;2023-02-03T10:17:56;99480.84;;;12.18;46.95
16331;BME280;8275;48.206;16.340;2023-02-03T10:20:33;99475.16;;;12.25;47.77
16331;BME280;8275;48.206;16.340;2023-02-03T10:23:10;99465.53;;;12.27;47.52
16331;BME280;8275;48.206;16.340;2023-02-03T10:25:42;99487.03;;;12.35;46.68
16331;BME280;8275;48.206;16.340;2023-02-03T10:28:16;99463.72;;;12.38;46.52
16331;BME280;8275;48.206;16.340;2023-02-03T10:30:52;99454.41;;;12.44;46.95
16331;BME280;8275;48.206;16.340;2023-02-03T10:33:25;99438.78;;;12.49;46.97
16331;BME280;8275;48.206;16.340;2023-02-03T10:36:00;99447.31;;;12.53;46.64
16331;BME280;8275;48.206;16.340;2023-02-03T10:38:46;99443.78;;;12.57;47.21
16331;BME280;8275;48.206;16.340;2023-02-03T10:41:18;99472.66;;;12.60;45.85
16331;BME280;8275;48.206;16.340;2023-02-03T10:43:49;99420.16;;;12.56;46.39
16331;BME280;8275;48.206;16.340;2023-02-03T10:46:26;99393.75;;;12.55;45.89
16331;BME280;8275;48.206;16.340;2023-02-03T10:48:56;99407.25;;;12.57;46.04
16331;BME280;8275;48.206;16.340;2023-02-03T10:51:27;99395.16;;;12.58;46.60
16331;BME280;8275;48.206;16.340;2023-02-03T10:53:58;99402.03;;;12.60;45.92
16331;BME280;8275;48.206;16.340;2023-02-03T10:56:30;99403.69;;;12.61;46.49
16331;BME280;8275;48.206;16.340;2023-02-03T10:59:03;99383.66;;;12.66;46.81
16331;BME280;8275;48.206;16.340;2023-02-03T11:01:43;99400.94;;;12.66;46.19
16331;BME280;8275;48.206;16.340;2023-02-03T11:04:25;99356.19;;;12.66;46.74
16331;BME280;8275;48.206;16.340;2023-02-03T11:06:56;99383.41;;;12.73;45.98
16331;BME280;8275;48.206;16.340;2023-02-03T11:09:32;99394.94;;;12.69;46.05
16331;BME280;8275;48.206;16.340;2023-02-03T11:12:12;99398.53;;;12.70;45.52
16331;BME280;8275;48.206;16.340;2023-02-03T11:14:42;99404.00;;;12.70;45.65
16331;BME280;8275;48.206;16.340;2023-02-03T11:17:17;99374.03;;;12.68;45.43
16331;BME280;8275;48.206;16.340;2023-02-03T11:19:50;99365.22;;;12.66;44.59
16331;BME280;8275;48.206;16.340;2023-02-03T11:22:28;99407.00;;;12.63;45.10
16331;BME280;8275;48.206;16.340;2023-02-03T11:24:58;99403.44;;;12.63;44.97
16331;BME280;8275;48.206;16.340;2023-02-03T11:27:30;99378.69;;;12.63;45.01
16331;BME280;8275;48.206;16.340;2023-02-03T11:30:13;99391.56;;;12.57;45.09
16331;BME280;8275;48.206;16.340;2023-02-03T11:32:45;99395.09;;;12.53;45.43
16331;BME280;8275;48.206;16.340;2023-02-03T11:35:18;99374.78;;;12.54;45.79
16331;BME280;8275;48.206;16.340;2023-02-03T11:37:52;99342.66;;;12.54;45.94
16331;BME280;8275;48.206;16.340;2023-02-03T11:40:26;99368.19;;;12.55;46.14
16331;BME280;8275;48.206;16.340;2023-02-03T11:43:02;99369.03;;;12.55;46.21
16331;BME280;8275;48.206;16.340;2023-02-03T11:45:37;99311.59;;;12.54;45.83
16331;BME280;8275;48.206;16.340;2023-02-03T11:48:22;99319.56;;;12.55;46.05
16331;BME280;8275;48.206;16.340;2023-02-03T11:51:00;99323.69;;;12.58;46.04
16331;BME280;8275;48.206;16.340;2023-02-03T11:53:47;99272.88;;;12.60;45.50
16331;BME280;8275;48.206;16.340;2023-02-03T11:56:33;99293.47;;;12.58;45.61
16331;BME280;8275;48.206;16.340;2023-02-03T11:59:33;99253.59;;;12.55;45.58
16331;BME280;8275;48.206;16.340;2023-02-03T12:05:50;99273.31;;;12.37;46.40
16331;BME280;8275;48.206;16.340;2023-02-03T12:08:36;99246.91;;;12.26;47.50
16331;BME280;8275;48.206;16.340;2023-02-03T12:11:23;99240.53;;;12.11;48.61
16331;BME280;8275;48.206;16.340;2023-02-03T12:14:16;99228.88;;;11.93;49.22
16331;BME280;8275;48.206;16.340;2023-02-03T12:17:23;99257.28;;;11.72;50.04
16331;BME280;8275;48.206;16.340;2023-02-03T12:20:30;99231.06;;;11.55;51.07
16331;BME280;8275;48.206;16.340;2023-02-03T12:23:16;99218.09;;;11.45;51.86
16331;BME280;8275;48.206;16.340;2023-02-03T12:26:06;99212.81;;;11.34;51.89
16331;BME280;8275;48.206;16.340;2023-02-03T12:28:58;99190.53;;;11.25;52.42
16331;BME280;8275;48.206;16.340;2023-02-03T12:31:34;99203.13;;;11.21;52.34
16331;BME280;8275;48.206;16.340;2023-02-03T12:34:14;99218.44;;;11.17;52.02
16331;BME280;8275;48.206;16.340;2023-02-03T12:36:48;99172.09;;;11.15;50.10
16331;BME280;8275;48.206;16.340;2023-02-03T12:39:27;99168.78;;;11.13;50.57
16331;BME280;8275;48.206;16.340;2023-02-03T12:42:01;99154.81;;;11.15;49.41
16331;BME280;8275;48.206;16.340;2023-02-03T12:44:39;99165.25;;;11.18;49.35
16331;BME280;8275;48.206;16.340;2023-02-03T12:47:19;99189.44;;;11.26;49.91
16331;BME280;8275;48.206;16.340;2023-02-03T12:49:55;99137.09;;;11.27;49.39
16331;BME280;8275;48.206;16.340;2023-02-03T12:52:30;99159.59;;;11.29;49.99
16331;BME280;8275;48.206;16.340;2023-02-03T12:55:16;99157.34;;;11.26;50.25
16331;BME280;8275;48.206;16.340;2023-02-03T12:57:51;99119.25;;;11.25;50.17
16331;BME280;8275;48.206;16.340;2023-02-03T13:00:40;99108.53;;;11.23;50.01
16331;BME280;8275;48.206;16.340;2023-02-03T13:03:18;99142.53;;;11.22;50.13
16331;BME280;8275;48.206;16.340;2023-02-03T13:06:03;99101.41;;;11.22;49.81
16331;BME280;8275;48.206;16.340;2023-02-03T13:08:36;99107.16;;;11.26;50.38
16331;BME280;8275;48.206;16.340;2023-02-03T13:11:18;99105.38;;;11.42;49.67
16331;BME280;8275;48.206;16.340;2023-02-03T13:13:53;99114.13;;;11.39;49.61
16331;BME280;8275;48.206;16.340;2023-02-03T13:16:28;99119.59;;;11.39;49.56
16331;BME280;8275;48.206;16.340;2023-02-03T13:19:05;99073.81;;;11.39;49.25
16331;BME280;8275;48.206;16.340;2023-02-03T13:21:37;99066.69;;;11.43;49.21
16331;BME280;8275;48.206;16.340;2023-02-03T13:24:06;99066.41;;;11.45;48.53
16331;BME280;8275;48.206;16.340;2023-02-03T13:27:06;99073.81;;;11.39;48.13
16331;BME280;8275;48.206;16.340;2023-02-03T13:30:17;99041.16;;;11.38;48.56
16331;BME280;8275;48.206;16.340;2023-02-03T13:33:20;99062.56;;;11.41;48.28
16331;BME280;8275;48.206;16.340;2023-02-03T13:36:07;99068.59;;;11.43;47.99
16331;BME280;8275;48.206;16.340;2023-02-03T13:39:13;99070.78;;;11.41;48.51
16331;BME280;8275;48.206;16.340;2023-02-03T13:41:47;99083.97;;;11.44;49.23